Time;durP1;ratioP1;P1;durP2;ratioP2;P2;SDS_P1;SDS_P2;PMS_P1;PMS_P2;Temp;Humidity;BMP_temperature;BMP_pressure;BME280_temperature;BME280_humidity;BME280_pressure;Samples;Min_cycle;Max_cycle;Signal;HPM_P1;HPM_P2
2023/05/04 00:03:04;;;;;;;21.00;11.80;;;;;;;3.77;52.76;101175.66;131166;1250;107271;-77
2023/05/04 00:06:10;;;;;;;20.40;11.70;;;;;;;3.72;52.81;101170.30;131028;1263;155820;-77
2023/05/04 00:09:15;;;;;;;20.90;12.30;;;;;;;3.70;52.83;101170.26;131185;1252;107501;-78
2023/05/04 00:12:21;;;;;;;21.70;11.90;;;;;;;3.68;52.80;101171.43;131219;1253;107518;-78
2023/05/04 00:15:28;;;;;;;19.00;11.50;;;;;;;3.67;53.05;101175.88;131178;1253;107488;-77
2023/05/04 00:18:33;;;;;;;20.10;11.50;;;;;;;3.66;53.00;101175.44;131184;1253;107341;-75
2023/05/04 00:21:39;;;;;;;18.40;11.10;;;;;;;3.62;52.99;101177.77;131199;1251;107461;-77
2023/05/04 00:24:44;;;;;;;19.90;11.40;;;;;;;3.59;52.95;101175.28;131326;1253;105930;-77
2023/05/04 00:27:50;;;;;;;17.60;10.60;;;;;;;3.54;53.20;101176.21;131415;1253;107256;-78
2023/05/04 00:30:56;;;;;;;19.80;10.90;;;;;;;3.51;53.21;101172.02;131142;1251;107414;-79
2023/05/04 00:34:02;;;;;;;20.10;10.60;;;;;;;3.47;53.31;101170.63;131341;1251;107388;-78
2023/05/04 00:37:07;;;;;;;17.40;10.50;;;;;;;3.45;53.37;101172.88;131088;1257;107986;-78
2023/05/04 00:40:13;;;;;;;18.50;10.20;;;;;;;3.45;53.50;101172.19;131240;1253;107477;-78
2023/05/04 00:43:19;;;;;;;18.10;10.70;;;;;;;3.43;53.58;101175.08;131082;1256;107272;-78
2023/05/04 00:46:25;;;;;;;18.20;10.70;;;;;;;3.40;53.45;101172.45;131018;1254;107486;-78
2023/05/04 00:49:30;;;;;;;19.40;10.60;;;;;;;3.37;53.72;101175.92;131369;1253;107381;-77
2023/05/04 00:52:37;;;;;;;16.50;10.30;;;;;;;3.36;53.71;101173.00;131160;1253;107465;-77
2023/05/04 00:55:42;;;;;;;20.80;11.10;;;;;;;3.33;53.75;101174.23;131369;1254;107529;-77
2023/05/04 00:58:49;;;;;;;17.90;10.70;;;;;;;3.34;53.80;101172.77;131202;1253;108096;-78
2023/05/04 01:01:54;;;;;;;16.40;10.00;;;;;;;3.34;53.96;101172.58;131155;1257;107533;-77
2023/05/04 01:05:00;;;;;;;16.10;9.70;;;;;;;3.35;53.99;101174.32;131125;1251;107561;-78
2023/05/04 01:08:13;;;;;;;16.00;10.00;;;;;;;3.32;53.93;101172.72;131139;1251;107372;-78
2023/05/04 01:11:26;;;;;;;15.70;9.30;;;;;;;3.25;53.90;101175.19;131273;1253;107580;-77
2023/05/04 01:14:33;;;;;;;16.60;9.80;;;;;;;3.16;54.08;101175.66;131333;1253;106459;-78
2023/05/04 01:17:40;;;;;;;16.20;9.70;;;;;;;3.14;54.29;101173.66;131062;1250;107524;-78
2023/05/04 01:20:46;;;;;;;16.00;9.60;;;;;;;3.14;54.19;101171.55;131125;1251;107551;-77
2023/05/04 01:23:52;;;;;;;16.40;9.40;;;;;;;3.11;54.41;101168.55;131186;1251;108689;-77
2023/05/04 01:27:04;;;;;;;16.80;9.30;;;;;;;3.13;54.38;101168.48;131462;1252;107214;-76
2023/05/04 01:30:14;;;;;;;19.00;9.60;;;;;;;3.15;54.44;101167.30;131365;1253;107496;-78
2023/05/04 01:33:23;;;;;;;15.10;9.40;;;;;;;3.15;54.40;101169.20;131036;1253;107594;-78
2023/05/04 01:36:29;;;;;;;14.80;8.90;;;;;;;3.13;54.62;101167.41;131210;1253;107244;-77
2023/05/04 01:39:35;;;;;;;16.30;9.60;;;;;;;3.10;54.43;101161.91;131213;1253;107431;-76
2023/05/04 01:42:41;;;;;;;15.80;8.80;;;;;;;3.07;54.60;101160.70;131180;1251;107481;-76
2023/05/04 01:45:46;;;;;;;15.40;8.90;;;;;;;3.01;54.80;101158.35;131250;1248;106574;-78
2023/05/04 01:48:52;;;;;;;17.60;9.60;;;;;;;2.99;54.92;101156.74;131306;1252;107544;-77
2023/05/04 01:51:57;;;;;;;14.70;8.90;;;;;;;2.96;54.79;101159.16;131134;1251;106424;-76
2023/05/04 01:55:03;;;;;;;18.60;9.40;;;;;;;2.93;54.84;101159.49;131157;1248;107268;-78
2023/05/04 01:58:11;;;;;;;17.90;9.50;;;;;;;2.92;54.90;101156.22;131235;1250;107359;-77
2023/05/04 02:01:16;;;;;;;15.60;9.10;;;;;;;2.90;55.01;101158.08;131228;1250;106539;-77
2023/05/04 02:04:22;;;;;;;14.50;9.20;;;;;;;2.86;55.04;101159.86;131245;1252;107431;-77
2023/05/04 02:07:27;;;;;;;15.00;9.30;;;;;;;2.86;55.23;101159.16;131162;1253;107378;-77
2023/05/04 02:10:33;;;;;;;14.50;8.60;;;;;;;2.85;55.02;101158.70;131193;1248;107508;-77
2023/05/04 02:13:39;;;;;;;14.60;8.50;;;;;;;2.84;55.15;101161.91;131229;1261;107247;-77
2023/05/04 02:16:44;;;;;;;15.10;9.20;;;;;;;2.82;55.35;101162.05;131218;1250;106385;-77
2023/05/04 02:19:50;;;;;;;14.20;8.70;;;;;;;2.80;55.43;101158.98;131213;1247;107562;-78
2023/05/04 02:22:55;;;;;;;12.80;8.30;;;;;;;2.79;55.29;101162.89;131443;1252;107603;-78
2023/05/04 02:26:01;;;;;;;14.70;9.10;;;;;;;2.80;55.44;101160.75;131261;1248;107398;-77
2023/05/04 02:29:07;;;;;;;14.10;8.30;;;;;;;2.78;55.40;101160.68;131871;1251;107369;-77
2023/05/04 02:32:12;;;;;;;14.00;8.10;;;;;;;2.77;55.50;101163.89;131218;1249;106538;-76
2023/05/04 02:35:18;;;;;;;15.20;8.50;;;;;;;2.72;55.41;101160.58;131258;1253;107617;-77
2023/05/04 02:38:23;;;;;;;14.90;8.90;;;;;;;2.68;55.69;101164.02;131166;1250;107255;-77
2023/05/04 02:41:29;;;;;;;12.90;7.80;;;;;;;2.63;55.71;101160.03;131410;1248;107324;-78
2023/05/04 02:44:34;;;;;;;14.00;8.10;;;;;;;2.62;55.78;101161.66;131462;1252;107534;-77
2023/05/04 02:47:40;;;;;;;14.30;8.00;;;;;;;2.61;55.86;101159.44;131333;1248;107579;-76
2023/05/04 02:50:46;;;;;;;16.90;8.30;;;;;;;2.59;55.82;101161.27;131105;1262;107543;-76
2023/05/04 02:53:51;;;;;;;15.40;8.60;;;;;;;2.52;56.01;101161.64;131225;1255;108426;-77
2023/05/04 02:56:57;;;;;;;13.20;8.20;;;;;;;2.44;55.98;101159.05;131634;1248;107582;-76
2023/05/04 03:00:05;;;;;;;12.90;7.80;;;;;;;2.43;56.05;101161.26;135521;1247;107506;-77
2023/05/04 03:03:11;;;;;;;13.50;8.00;;;;;;;2.43;56.23;101165.07;135508;1247;107617;-75
2023/05/04 03:06:17;;;;;;;12.90;7.90;;;;;;;2.43;56.18;101167.90;135523;1247;107510;-74
2023/05/04 03:09:22;;;;;;;15.10;8.90;;;;;;;2.42;56.55;101170.63;135506;1247;107410;-74
2023/05/04 03:12:28;;;;;;;14.30;8.20;;;;;;;2.41;56.42;101168.73;134407;1252;107423;-75
2023/05/04 03:15:33;;;;;;;13.30;7.90;;;;;;;2.41;56.41;101172.55;131069;1255;107561;-76
2023/05/04 03:18:39;;;;;;;12.70;8.20;;;;;;;2.45;56.51;101166.60;131196;1248;107198;-76
2023/05/04 03:21:45;;;;;;;14.40;7.90;;;;;;;2.48;56.44;101165.04;131184;1256;107406;-76
2023/05/04 03:24:51;;;;;;;15.30;8.20;;;;;;;2.50;56.43;101164.06;131252;1253;107649;-75
2023/05/04 03:27:56;;;;;;;16.10;9.60;;;;;;;2.50;56.57;101163.32;131247;1250;107522;-77
2023/05/04 03:31:02;;;;;;;14.90;8.60;;;;;;;2.54;56.71;101164.52;131366;1253;107485;-76
2023/05/04 03:34:11;;;;;;;14.70;8.50;;;;;;;2.57;56.73;101164.58;131209;1254;107325;-76
2023/05/04 03:37:17;;;;;;;14.70;9.10;;;;;;;2.59;56.56;101160.94;131404;1252;107340;-76
2023/05/04 03:40:23;;;;;;;15.10;8.60;;;;;;;2.63;56.84;101160.36;131266;1253;107569;-76
2023/05/04 03:43:30;;;;;;;15.60;9.00;;;;;;;2.67;56.91;101160.67;131306;1251;107355;-75
2023/05/04 03:46:36;;;;;;;15.50;9.40;;;;;;;2.75;56.98;101160.13;131191;1253;107461;-75
2023/05/04 03:49:42;;;;;;;14.40;8.90;;;;;;;2.89;57.15;101165.15;131383;1250;107346;-75
2023/05/04 03:52:47;;;;;;;14.20;8.60;;;;;;;3.10;57.02;101166.01;131278;1251;109007;-73
2023/05/04 03:55:54;;;;;;;13.40;8.60;;;;;;;3.26;56.86;101163.54;131135;1254;107379;-76
2023/05/04 03:59:00;;;;;;;13.90;8.20;;;;;;;3.40;57.03;101164.86;131189;1251;107359;-77
2023/05/04 04:02:08;;;;;;;14.60;8.70;;;;;;;3.65;57.21;101169.48;131202;1251;107231;-76
2023/05/04 04:05:14;;;;;;;14.00;8.20;;;;;;;3.88;56.93;101168.40;131383;1247;107509;-76
2023/05/04 04:08:20;;;;;;;13.90;8.20;;;;;;;4.10;56.95;101173.44;131299;1250;107214;-77
2023/05/04 04:11:26;;;;;;;13.20;8.30;;;;;;;4.32;56.95;101176.77;131117;1251;107470;-77
2023/05/04 04:14:32;;;;;;;13.50;8.30;;;;;;;4.52;56.85;101178.36;131188;1250;107508;-77
2023/05/04 04:17:37;;;;;;;12.80;8.60;;;;;;;4.81;56.94;101177.17;131148;1251;107538;-76
2023/05/04 04:20:43;;;;;;;14.90;7.70;;;;;;;5.05;56.79;101177.27;131161;1251;106273;-76
2023/05/04 04:23:48;;;;;;;12.70;8.10;;;;;;;5.24;57.00;101176.30;131145;1254;107584;-76
2023/05/04 04:26:54;;;;;;;14.20;9.00;;;;;;;5.38;56.71;101179.16;131181;1253;107532;-76
2023/05/04 04:30:00;;;;;;;14.90;9.30;;;;;;;5.53;56.81;101179.22;131469;1249;107237;-76
2023/05/04 04:33:05;;;;;;;13.60;8.30;;;;;;;5.78;56.97;101175.86;131348;1253;107359;-76
2023/05/04 04:36:15;;;;;;;15.30;8.30;;;;;;;6.00;56.97;101172.15;131427;1251;107653;-76
2023/05/04 04:39:21;;;;;;;16.50;8.30;;;;;;;6.27;56.94;101174.95;131366;1252;107552;-76
2023/05/04 04:42:26;;;;;;;13.40;8.90;;;;;;;6.51;56.98;101173.15;131344;1263;108124;-76
2023/05/04 04:45:32;;;;;;;13.70;8.80;;;;;;;6.71;56.99;101170.02;131249;1253;107519;-76
2023/05/04 04:48:38;;;;;;;13.50;8.80;;;;;;;6.94;57.18;101172.55;131090;1253;107522;-77
2023/05/04 04:51:43;;;;;;;14.00;9.10;;;;;;;7.14;57.21;101173.23;131563;1251;107511;-76
2023/05/04 04:54:50;;;;;;;14.50;8.80;;;;;;;7.34;57.12;101173.05;131489;1252;107515;-76
2023/05/04 04:57:55;;;;;;;16.00;10.10;;;;;;;7.60;57.38;101171.94;131528;1253;108312;-77
2023/05/04 05:01:02;;;;;;;17.60;9.90;;;;;;;7.82;57.51;101170.13;131384;1251;107497;-76
2023/05/04 05:04:08;;;;;;;18.60;10.60;;;;;;;8.03;57.48;101166.52;131253;1253;107505;-76
2023/05/04 05:07:14;;;;;;;16.70;10.50;;;;;;;8.22;57.59;101165.06;131310;1251;107363;-76
2023/05/04 05:10:21;;;;;;;19.10;10.60;;;;;;;8.38;57.81;101166.52;131303;1254;108444;-76
2023/05/04 05:13:26;;;;;;;17.60;10.70;;;;;;;8.58;57.91;101168.39;131433;1250;107356;-76
2023/05/04 05:16:32;;;;;;;19.40;11.40;;;;;;;8.83;58.07;101164.73;131159;1253;107475;-76
2023/05/04 05:19:37;;;;;;;18.00;10.90;;;;;;;9.06;57.55;101165.54;131174;1253;107316;-76
2023/05/04 05:22:43;;;;;;;16.00;10.60;;;;;;;9.24;57.33;101162.73;131220;1264;107236;-77
2023/05/04 05:25:50;;;;;;;15.40;10.10;;;;;;;9.34;56.24;101158.53;131229;1250;107535;-78
2023/05/04 05:28:56;;;;;;;15.40;10.40;;;;;;;9.46;56.43;101159.17;131181;1256;107460;-79
2023/05/04 05:32:02;;;;;;;14.10;9.50;;;;;;;9.58;56.48;101158.97;131055;1251;107546;-77
2023/05/04 05:35:10;;;;;;;14.60;9.90;;;;;;;9.70;56.24;101159.54;131243;1253;107605;-77
2023/05/04 05:38:16;;;;;;;16.10;9.90;;;;;;;9.83;56.74;101159.54;131336;1254;107364;-77
2023/05/04 05:41:22;;;;;;;12.30;9.30;;;;;;;9.98;56.53;101157.09;131317;1248;108106;-77
2023/05/04 05:44:28;;;;;;;12.00;8.50;;;;;;;10.15;56.44;101153.39;131205;1251;107289;-77
2023/05/04 05:47:33;;;;;;;12.60;9.00;;;;;;;10.28;56.28;101149.31;131153;1253;107521;-76
2023/05/04 05:50:39;;;;;;;13.80;9.30;;;;;;;10.38;56.21;101150.54;131405;1253;107755;-77
2023/05/04 05:53:45;;;;;;;12.70;8.60;;;;;;;10.48;56.21;101150.95;131137;1253;107469;-80
2023/05/04 05:56:50;;;;;;;12.20;7.90;;;;;;;10.58;56.04;101155.63;131505;1253;106869;-77
2023/05/04 05:59:56;;;;;;;11.70;8.80;;;;;;;10.71;56.21;101156.71;131258;1254;107228;-77
2023/05/04 06:03:02;;;;;;;12.10;8.40;;;;;;;10.81;56.31;101155.84;131214;1253;107343;-77
2023/05/04 06:06:07;;;;;;;10.30;7.60;;;;;;;10.88;55.97;101151.66;131129;1253;107292;-77
2023/05/04 06:09:13;;;;;;;11.20;7.60;;;;;;;10.93;55.57;101150.85;131064;1253;107176;-78
2023/05/04 06:12:18;;;;;;;11.70;7.60;;;;;;;10.96;55.87;101150.74;131158;1251;107233;-75
2023/05/04 06:15:24;;;;;;;12.50;8.40;;;;;;;10.99;55.78;101145.90;131261;1253;107508;-75
2023/05/04 06:18:30;;;;;;;11.90;8.30;;;;;;;11.06;55.57;101145.45;131157;1253;107391;-75
2023/05/04 06:21:36;;;;;;;11.80;8.00;;;;;;;11.15;55.44;101143.29;131286;1253;105553;-75
2023/05/04 06:24:41;;;;;;;12.70;8.60;;;;;;;11.19;55.11;101143.44;131385;1253;107496;-75
2023/05/04 06:27:47;;;;;;;12.50;9.00;;;;;;;11.24;54.94;101144.42;131205;1253;107553;-76
2023/05/04 06:30:52;;;;;;;14.10;9.20;;;;;;;11.28;54.58;101144.42;131426;1253;107543;-76
2023/05/04 06:33:58;;;;;;;13.20;8.70;;;;;;;11.31;54.32;101145.42;131435;1254;107510;-76
2023/05/04 06:37:03;;;;;;;11.10;7.90;;;;;;;11.33;54.75;101146.78;131171;1251;108069;-76
2023/05/04 06:40:11;;;;;;;11.60;7.40;;;;;;;11.43;54.48;101142.24;131127;1263;107435;-75
2023/05/04 06:43:16;;;;;;;10.40;7.20;;;;;;;11.51;54.59;101139.93;131254;1253;107514;-76
2023/05/04 06:46:22;;;;;;;9.30;6.80;;;;;;;11.61;54.81;101137.40;131293;1252;107534;-76
2023/05/04 06:49:30;;;;;;;10.10;6.90;;;;;;;11.71;54.12;101140.92;131196;1253;107449;-76
2023/05/04 06:52:38;;;;;;;10.00;6.50;;;;;;;11.81;54.21;101145.52;131091;1251;107631;-75
2023/05/04 06:55:43;;;;;;;7.70;5.40;;;;;;;11.91;53.18;101146.85;131179;1253;107520;-75
2023/05/04 06:58:49;;;;;;;7.50;5.50;;;;;;;11.95;52.88;101141.06;131266;1253;107976;-77
2023/05/04 07:01:55;;;;;;;6.80;4.90;;;;;;;12.05;52.62;101144.67;131154;1261;107298;-76
2023/05/04 07:05:01;;;;;;;7.10;5.20;;;;;;;12.16;52.96;101143.14;131161;1261;107333;-76
2023/05/04 07:08:06;;;;;;;5.70;4.20;;;;;;;12.25;50.21;101143.23;131151;1253;107239;-76
2023/05/04 07:11:12;;;;;;;8.30;3.40;;;;;;;12.30;51.52;101145.02;131077;1261;107355;-75
2023/05/04 07:14:18;;;;;;;2.70;2.00;;;;;;;12.40;49.40;101148.92;131246;1253;106688;-77
2023/05/04 07:17:24;;;;;;;4.30;2.40;;;;;;;12.47;49.32;101152.95;131143;1257;107218;-76
2023/05/04 07:20:30;;;;;;;2.20;1.70;;;;;;;12.54;47.69;101150.29;131168;1255;107546;-75
2023/05/04 07:23:35;;;;;;;2.50;1.70;;;;;;;12.58;46.95;101146.89;131297;1253;107517;-75
2023/05/04 07:26:41;;;;;;;2.50;1.80;;;;;;;12.61;46.62;101135.36;131372;1261;106510;-75
2023/05/04 07:29:47;;;;;;;2.90;2.10;;;;;;;12.63;46.88;101136.98;131446;1254;107249;-75
2023/05/04 07:32:52;;;;;;;3.60;2.00;;;;;;;12.70;47.90;101140.27;131357;1261;107541;-77
2023/05/04 07:36:01;;;;;;;3.80;2.10;;;;;;;12.78;47.74;101136.98;131430;1251;107232;-76
2023/05/04 07:39:07;;;;;;;2.70;2.00;;;;;;;12.86;47.84;101143.52;131382;1254;107498;-76
2023/05/04 07:42:13;;;;;;;4.90;3.20;;;;;;;12.91;46.31;101139.64;131375;1252;107530;-75
2023/05/04 07:45:18;;;;;;;3.60;2.00;;;;;;;12.95;45.03;101141.94;131262;1261;107523;-75
2023/05/04 07:48:24;;;;;;;4.00;2.30;;;;;;;13.07;46.88;101139.54;131182;1253;107603;-75
2023/05/04 07:51:30;;;;;;;2.10;1.70;;;;;;;13.22;46.13;101139.19;131154;1263;107473;-76
2023/05/04 07:54:35;;;;;;;2.50;1.60;;;;;;;13.32;46.11;101132.73;131354;1248;107526;-75
2023/05/04 07:57:41;;;;;;;3.70;1.70;;;;;;;13.41;45.98;101129.86;131241;1252;107521;-76
2023/05/04 08:00:47;;;;;;;2.40;1.60;;;;;;;13.50;46.01;101132.59;131219;1253;106817;-75
2023/05/04 08:03:52;;;;;;;2.80;1.90;;;;;;;13.54;43.76;101136.65;131233;1254;107903;-76
2023/05/04 08:06:58;;;;;;;3.60;2.40;;;;;;;13.57;44.35;101134.06;131230;1261;107519;-76
2023/05/04 08:10:03;;;;;;;37.60;27.70;;;;;;;13.59;44.88;101125.10;131374;1254;107253;-75
2023/05/04 08:13:09;;;;;;;11.30;7.60;;;;;;;13.61;42.47;101128.08;131382;1253;107482;-75
2023/05/04 08:16:15;;;;;;;6.30;3.40;;;;;;;13.64;44.32;101122.95;131179;1261;107501;-76
2023/05/04 08:19:21;;;;;;;5.90;3.10;;;;;;;13.68;42.24;101126.40;131229;1254;106678;-76
2023/05/04 08:22:27;;;;;;;4.40;2.50;;;;;;;13.61;41.33;101124.52;131430;1257;107244;-76
2023/05/04 08:25:32;;;;;;;3.90;2.60;;;;;;;13.63;42.11;101122.02;131324;1254;107497;-75
2023/05/04 08:28:39;;;;;;;3.70;2.70;;;;;;;13.67;41.36;101129.83;131387;1263;107447;-76
2023/05/04 08:31:44;;;;;;;2.70;1.70;;;;;;;13.75;43.13;101125.14;131226;1255;107492;-75
2023/05/04 08:34:50;;;;;;;3.00;2.10;;;;;;;13.83;42.44;101123.80;131104;1260;107498;-77
2023/05/04 08:37:56;;;;;;;3.80;2.20;;;;;;;13.83;40.95;101126.43;131320;1253;106548;-76
2023/05/04 08:41:04;;;;;;;3.20;2.00;;;;;;;13.84;42.74;101122.44;131438;1261;107369;-76
2023/05/04 08:44:11;;;;;;;3.00;2.10;;;;;;;13.89;39.35;101128.36;131250;1253;107275;-76
2023/05/04 08:47:16;;;;;;;7.00;2.30;;;;;;;13.86;39.94;101121.88;131181;1256;106836;-76
2023/05/04 08:50:22;;;;;;;2.90;1.80;;;;;;;13.92;40.44;101126.66;131483;1254;107527;-76
2023/05/04 08:53:30;;;;;;;3.20;2.10;;;;;;;13.98;40.47;101127.66;131399;1263;107425;-76
2023/05/04 08:56:37;;;;;;;4.00;2.40;;;;;;;14.07;40.29;101123.17;131423;1254;107177;-76
2023/05/04 08:59:45;;;;;;;2.90;2.20;;;;;;;14.10;39.26;101116.98;131215;1257;108113;-75
2023/05/04 09:02:50;;;;;;;3.80;2.00;;;;;;;14.10;39.84;101114.66;131194;1254;107376;-75
2023/05/04 09:05:57;;;;;;;3.50;1.80;;;;;;;14.13;40.24;101115.55;131097;1257;107538;-75
2023/05/04 09:09:02;;;;;;;2.40;1.80;;;;;;;14.26;40.49;101112.66;131164;1261;107518;-76
2023/05/04 09:12:08;;;;;;;2.60;1.90;;;;;;;14.36;40.61;101116.70;131265;1263;107596;-75
2023/05/04 09:15:18;;;;;;;3.10;1.70;;;;;;;14.26;38.53;101115.38;131467;1254;107529;-76
2023/05/04 09:18:35;;;;;;;4.30;2.20;;;;;;;14.11;40.26;101114.49;131216;1253;107249;-76
2023/05/04 09:21:40;;;;;;;2.70;1.60;;;;;;;14.09;40.05;101112.23;131108;1253;107232;-76
2023/05/04 09:24:46;;;;;;;2.90;2.10;;;;;;;14.14;38.93;101115.09;131328;1261;107360;-76
2023/05/04 09:27:55;;;;;;;2.60;1.90;;;;;;;14.22;39.68;101107.37;131243;1263;106751;-76
2023/05/04 09:31:03;;;;;;;4.80;3.60;;;;;;;14.35;40.67;101106.23;131249;1254;107448;-76
2023/05/04 09:34:12;;;;;;;3.10;2.00;;;;;;;14.49;41.19;101105.30;131166;1253;107371;-76
2023/05/04 09:37:19;;;;;;;3.10;1.90;;;;;;;14.63;40.91;101101.61;131202;1257;107333;-76
2023/05/04 09:40:32;;;;;;;2.40;1.70;;;;;;;14.72;40.58;101102.23;131173;1253;107633;-76
2023/05/04 09:43:43;;;;;;;3.50;1.80;;;;;;;14.79;40.44;101093.86;131325;1251;107479;-76
2023/05/04 09:46:56;;;;;;;1.90;1.60;;;;;;;14.81;39.16;101098.41;131445;1254;107488;-78
2023/05/04 09:50:13;;;;;;;4.00;1.80;;;;;;;14.82;38.80;101095.46;131252;1253;107550;-76
2023/05/04 09:53:23;;;;;;;2.40;1.80;;;;;;;14.88;39.98;101093.16;131425;1253;105931;-76
2023/05/04 09:56:37;;;;;;;3.60;2.10;;;;;;;14.87;37.10;101088.10;131323;1254;107617;-77
2023/05/04 09:59:43;;;;;;;2.20;1.60;;;;;;;14.83;39.26;101086.61;131205;1254;107526;-77
2023/05/04 10:02:49;;;;;;;4.40;1.70;;;;;;;14.86;39.20;101082.52;131378;1254;108659;-76
2023/05/04 10:05:56;;;;;;;3.30;1.70;;;;;;;14.92;38.92;101076.20;131191;1263;106868;-76
2023/05/04 10:09:02;;;;;;;2.70;1.80;;;;;;;14.98;39.37;101072.52;131284;1253;107501;-76
2023/05/04 10:12:08;;;;;;;4.30;2.20;;;;;;;15.07;38.83;101065.27;131126;1254;105519;-76
2023/05/04 10:15:17;;;;;;;3.20;2.30;;;;;;;15.11;37.07;101070.42;131189;1253;107544;-77
2023/05/04 10:18:37;;;;;;;2.90;2.00;;;;;;;15.09;37.58;101067.59;131306;1254;107227;-76
2023/05/04 10:21:56;;;;;;;3.20;1.80;;;;;;;15.08;37.37;101068.92;131301;1256;107478;-76
2023/05/04 10:25:28;;;;;;;3.10;2.00;;;;;;;15.12;38.82;101067.56;131387;1247;107231;-76
2023/05/04 10:28:43;;;;;;;3.80;2.20;;;;;;;15.22;38.66;101068.40;131360;1251;108153;-76
2023/05/04 10:31:48;;;;;;;3.40;1.80;;;;;;;15.28;38.26;101061.23;131337;1262;107414;-79
2023/05/04 10:35:06;;;;;;;2.60;2.10;;;;;;;15.31;38.39;101057.80;131124;1248;107349;-76
2023/05/04 10:38:13;;;;;;;2.60;2.10;;;;;;;15.35;38.84;101054.96;131326;1254;107520;-76
2023/05/04 10:41:20;;;;;;;4.10;2.10;;;;;;;15.38;38.40;101057.02;131244;1251;105867;-76
2023/05/04 10:44:26;;;;;;;2.50;1.90;;;;;;;15.39;38.10;101056.48;131177;1251;107305;-76
2023/05/04 10:47:34;;;;;;;2.40;2.10;;;;;;;15.40;37.35;101058.91;131199;1261;107627;-76
2023/05/04 10:50:48;;;;;;;2.70;1.80;;;;;;;15.39;37.60;101055.15;131391;1254;106735;-77
2023/05/04 10:53:53;;;;;;;3.20;2.10;;;;;;;15.42;38.51;101043.45;131347;1251;107562;-77
2023/05/04 10:57:05;;;;;;;2.40;2.10;;;;;;;15.50;38.37;101036.84;131412;1248;107290;-76
2023/05/04 11:00:13;;;;;;;2.60;2.30;;;;;;;15.49;36.51;101037.81;131484;1254;107443;-76
2023/05/04 11:03:20;;;;;;;2.50;2.20;;;;;;;15.42;36.54;101034.34;131369;1254;106679;-75
2023/05/04 11:06:27;;;;;;;2.20;1.90;;;;;;;15.49;38.15;101026.54;131177;1251;107240;-75
2023/05/04 11:09:39;;;;;;;4.40;2.40;;;;;;;15.54;35.99;101024.09;131319;1254;107526;-74
2023/05/04 11:12:45;;;;;;;3.90;1.90;;;;;;;15.56;37.34;101018.42;131522;1253;106660;-75
2023/05/04 11:15:51;;;;;;;3.10;2.10;;;;;;;15.66;37.88;101015.23;131548;1261;107525;-74
2023/05/04 11:19:06;;;;;;;3.20;1.80;;;;;;;15.71;37.22;101016.43;131359;1254;107518;-75
2023/05/04 11:22:12;;;;;;;3.20;2.00;;;;;;;15.71;36.83;101009.20;131511;1253;106768;-75
2023/05/04 11:25:26;;;;;;;5.20;2.70;;;;;;;15.70;36.51;101008.13;131239;1261;107533;-75
2023/05/04 11:28:36;;;;;;;3.50;2.20;;;;;;;15.63;34.63;101007.99;131314;1253;107376;-75
2023/05/04 11:31:43;;;;;;;2.70;2.00;;;;;;;15.51;36.67;101001.03;131132;1261;107815;-75
2023/05/04 11:34:51;;;;;;;2.80;2.10;;;;;;;15.54;37.21;100998.41;131133;1253;107453;-75
2023/05/04 11:37:56;;;;;;;3.50;2.20;;;;;;;15.61;35.62;100997.06;131433;1248;107321;-75
2023/05/04 12:06:17;;;;;;;2.80;2.10;;;;;;;16.00;35.07;100981.19;127702;1283;648692;-76
2023/05/04 12:09:23;;;;;;;3.30;1.90;;;;;;;16.04;33.50;100970.31;129846;1266;218515;-77
2023/05/04 12:12:36;;;;;;;3.10;2.10;;;;;;;16.06;35.73;100968.70;130187;1267;107414;-77
2023/05/04 12:15:41;;;;;;;2.50;1.90;;;;;;;16.14;34.81;100970.48;130112;1264;107584;-76
2023/05/04 12:18:47;;;;;;;4.30;2.40;;;;;;;16.10;33.71;100968.77;130104;1261;107534;-77
2023/05/04 12:21:56;;;;;;;5.10;2.50;;;;;;;16.09;33.70;100965.59;130113;1261;106679;-76
2023/05/04 12:25:02;;;;;;;2.40;1.90;;;;;;;16.10;34.85;100959.73;130109;1276;107365;-76
2023/05/04 12:28:11;;;;;;;4.80;2.40;;;;;;;16.14;34.18;100958.04;130162;1276;107625;-75
2023/05/04 12:31:17;;;;;;;2.60;2.10;;;;;;;16.17;34.40;100947.21;131355;1254;108133;-75
2023/05/04 12:34:22;;;;;;;2.20;2.00;;;;;;;16.19;33.95;100947.54;131524;1253;107408;-75
2023/05/04 12:37:28;;;;;;;3.30;1.80;;;;;;;16.14;34.65;100946.59;131111;1250;107400;-76
2023/05/04 12:40:33;;;;;;;2.90;2.20;;;;;;;16.16;34.34;100943.91;131195;1251;107577;-75
2023/05/04 12:43:39;;;;;;;8.30;2.90;;;;;;;16.17;34.84;100939.86;131298;1256;107268;-76
2023/05/04 12:46:47;;;;;;;4.60;2.70;;;;;;;16.21;34.41;100939.69;131325;1251;107556;-76
2023/05/04 12:49:54;;;;;;;3.70;2.60;;;;;;;16.24;34.42;100940.61;131268;1253;107470;-76
2023/05/04 12:53:02;;;;;;;3.20;2.20;;;;;;;16.27;34.45;100933.64;131161;1250;109654;-75
2023/05/04 12:56:10;;;;;;;3.50;2.10;;;;;;;16.32;34.45;100932.05;131338;1251;106141;-78
2023/05/04 12:59:16;;;;;;;4.10;2.40;;;;;;;16.30;33.63;100935.34;131118;1251;107502;-78
2023/05/04 13:02:21;;;;;;;3.40;2.60;;;;;;;16.29;33.78;100932.48;131349;1251;107401;-75
2023/05/04 13:05:30;;;;;;;2.80;2.00;;;;;;;16.26;33.97;100932.66;131078;1253;107525;-75
2023/05/04 13:08:35;;;;;;;3.10;2.30;;;;;;;16.28;33.44;100924.00;131157;1254;107198;-76
2023/05/04 13:11:46;;;;;;;2.90;2.20;;;;;;;16.25;33.20;100923.23;131134;1253;106557;-76
2023/05/04 13:14:54;;;;;;;3.10;2.60;;;;;;;16.26;33.71;100922.10;131070;1254;107309;-76
2023/05/04 13:18:00;;;;;;;4.80;2.30;;;;;;;16.30;33.10;100917.70;131135;1249;106839;-76
2023/05/04 13:21:06;;;;;;;4.30;2.50;;;;;;;16.34;32.80;100917.09;131100;1253;106221;-76
2023/05/04 13:24:12;;;;;;;5.10;2.60;;;;;;;16.27;33.00;100910.06;131234;1253;107489;-75
2023/05/04 13:27:17;;;;;;;2.90;2.10;;;;;;;16.31;33.97;100905.74;131260;1254;107224;-76
2023/05/04 13:30:23;;;;;;;3.60;2.50;;;;;;;16.36;33.17;100907.11;131323;1253;107480;-76
2023/05/04 13:33:29;;;;;;;3.30;2.30;;;;;;;16.29;32.59;100905.45;131363;1250;106509;-75
2023/05/04 13:36:34;;;;;;;5.20;2.50;;;;;;;16.28;33.37;100898.18;131522;1253;107514;-78
2023/05/04 13:39:43;;;;;;;3.80;2.20;;;;;;;16.32;33.82;100893.97;131319;1264;107656;-77
2023/05/04 13:42:49;;;;;;;2.80;1.80;;;;;;;16.38;33.83;100889.52;131167;1251;107509;-77
2023/05/04 13:45:55;;;;;;;3.00;2.00;;;;;;;16.41;33.61;100883.99;131383;1251;107479;-79
2023/05/04 13:49:01;;;;;;;4.10;1.90;;;;;;;16.38;33.05;100880.70;131344;1250;107287;-76
2023/05/04 13:52:08;;;;;;;2.90;2.00;;;;;;;16.36;32.90;100880.35;131050;1253;107350;-76
2023/05/04 13:55:15;;;;;;;4.00;2.20;;;;;;;16.39;33.32;100878.28;131229;1251;107486;-75
2023/05/04 15:39:45;;;;;;;3.10;1.90;;;;;;;16.43;32.20;100800.14;127938;1288;648816;-76
2023/05/04 15:42:51;;;;;;;3.70;2.20;;;;;;;16.51;32.54;100793.42;129913;1265;150441;-76
2023/05/04 15:45:56;;;;;;;4.10;3.10;;;;;;;16.51;32.51;100791.44;130080;1265;108186;-76
2023/05/04 15:49:02;;;;;;;5.20;3.30;;;;;;;16.50;32.49;100783.23;130203;1266;107555;-75
2023/05/04 15:52:09;;;;;;;4.20;2.20;;;;;;;16.44;31.99;100784.64;130066;1263;107423;-77
2023/05/04 15:55:14;;;;;;;5.20;2.80;;;;;;;16.36;32.07;100787.27;130001;1273;107238;-75
2023/05/04 15:58:20;;;;;;;3.90;2.30;;;;;;;16.31;32.22;100789.21;130228;1263;105673;-77
2023/05/04 16:01:26;;;;;;;2.70;2.20;;;;;;;16.29;32.48;100787.60;130004;1261;109290;-75
2023/05/04 16:04:32;;;;;;;3.00;2.40;;;;;;;16.24;32.03;100787.51;130026;1283;107402;-75
2023/05/04 16:07:37;;;;;;;3.80;2.30;;;;;;;16.18;32.12;100788.45;130024;1265;107212;-75
2023/05/04 16:10:43;;;;;;;4.60;2.10;;;;;;;16.13;32.07;100789.27;130146;1264;107540;-75
2023/05/04 16:13:48;;;;;;;3.60;2.00;;;;;;;16.12;32.41;100786.58;130447;1257;107392;-76